sensor_id;sensor_type;location;lat;lon;timestamp;pressure;altitude;pressure_sealevel;temperature;humidity
69524;BME280;56723;42.694;23.286;2023-05-12T10:15:45;95344.19;;;11.96;72.62
69524;BME280;56723;42.694;23.286;2023-05-12T10:18:15;95344.63;;;12.16;70.87
69524;BME280;56723;42.694;23.286;2023-05-12T10:20:43;95348.47;;;12.28;68.16
69524;BME280;56723;42.694;23.286;2023-05-12T10:23:11;95354.50;;;12.20;66.62
69524;BME280;56723;42.694;23.286;2023-05-12T10:25:43;95353.00;;;12.34;67.76
69524;BME280;56723;42.694;23.286;2023-05-12T10:28:10;95345.03;;;12.35;66.39
69524;BME280;56723;42.694;23.286;2023-05-12T10:30:38;95347.09;;;12.48;67.75
69524;BME280;56723;42.694;23.286;2023-05-12T10:33:06;95344.16;;;12.59;65.85
69524;BME280;56723;42.694;23.286;2023-05-12T10:35:35;95331.88;;;12.76;65.21
69524;BME280;56723;42.694;23.286;2023-05-12T10:38:10;95332.69;;;12.99;66.47
69524;BME280;56723;42.694;23.286;2023-05-12T10:41:14;95336.06;;;13.16;63.07
69524;BME280;56723;42.694;23.286;2023-05-12T10:43:47;95330.75;;;13.32;63.01
69524;BME280;56723;42.694;23.286;2023-05-12T10:46:17;95329.09;;;13.54;60.18
69524;BME280;56723;42.694;23.286;2023-05-12T10:49:17;95323.97;;;13.61;59.61
69524;BME280;56723;42.694;23.286;2023-05-12T10:51:47;95334.34;;;13.69;61.43
69524;BME280;56723;42.694;23.286;2023-05-12T10:54:20;95323.31;;;13.96;59.06
69524;BME280;56723;42.694;23.286;2023-05-12T10:56:47;95327.19;;;14.00;57.51
69524;BME280;56723;42.694;23.286;2023-05-12T10:59:22;95325.84;;;14.04;58.97
69524;BME280;56723;42.694;23.286;2023-05-12T11:02:12;95334.38;;;14.13;58.95
69524;BME280;56723;42.694;23.286;2023-05-12T11:07:15;95331.34;;;14.09;58.08
69524;BME280;56723;42.694;23.286;2023-05-12T11:09:45;95323.97;;;13.98;56.89
69524;BME280;56723;42.694;23.286;2023-05-12T11:12:26;95332.28;;;13.79;58.39
69524;BME280;56723;42.694;23.286;2023-05-12T11:14:54;95331.00;;;13.60;59.48
69524;BME280;56723;42.694;23.286;2023-05-12T11:17:21;95329.00;;;13.47;59.47
69524;BME280;56723;42.694;23.286;2023-05-12T11:19:49;95331.25;;;13.50;60.25
69524;BME280;56723;42.694;23.286;2023-05-12T11:22:19;95329.88;;;13.55;60.72
69524;BME280;56723;42.694;23.286;2023-05-12T11:24:50;95337.81;;;13.38;59.87
69524;BME280;56723;42.694;23.286;2023-05-12T11:27:20;95334.22;;;12.94;62.00
69524;BME280;56723;42.694;23.286;2023-05-12T11:30:16;95339.50;;;12.77;62.61
69524;BME280;56723;42.694;23.286;2023-05-12T11:32:43;95340.50;;;12.68;63.50
69524;BME280;56723;42.694;23.286;2023-05-12T11:35:15;95331.97;;;12.82;63.90
69524;BME280;56723;42.694;23.286;2023-05-12T11:37:43;95334.41;;;12.84;63.20
69524;BME280;56723;42.694;23.286;2023-05-12T11:40:28;95338.78;;;12.92;63.19
69524;BME280;56723;42.694;23.286;2023-05-12T11:42:55;95338.84;;;13.06;62.24
69524;BME280;56723;42.694;23.286;2023-05-12T11:45:28;95339.47;;;13.16;61.12
69524;BME280;56723;42.694;23.286;2023-05-12T11:48:09;95335.00;;;13.25;61.49
69524;BME280;56723;42.694;23.286;2023-05-12T11:50:44;95332.34;;;13.33;60.19
69524;BME280;56723;42.694;23.286;2023-05-12T11:53:17;95335.69;;;13.42;58.91
69524;BME280;56723;42.694;23.286;2023-05-12T11:55:55;95324.28;;;13.43;59.00
69524;BME280;56723;42.694;23.286;2023-05-12T11:58:24;95329.00;;;13.47;57.88
69524;BME280;56723;42.694;23.286;2023-05-12T12:00:53;95324.41;;;13.49;58.10
69524;BME280;56723;42.694;23.286;2023-05-12T12:03:20;95324.88;;;13.53;58.32
69524;BME280;56723;42.694;23.286;2023-05-12T12:05:59;95312.38;;;13.48;57.27
69524;BME280;56723;42.694;23.286;2023-05-12T12:08:26;95329.97;;;13.46;57.00
69524;BME280;56723;42.694;23.286;2023-05-12T12:10:53;95325.78;;;13.37;57.22
69524;BME280;56723;42.694;23.286;2023-05-12T12:13:22;95325.78;;;13.37;56.50
69524;BME280;56723;42.694;23.286;2023-05-12T12:15:52;95333.09;;;13.42;58.03
69524;BME280;56723;42.694;23.286;2023-05-12T12:18:20;95333.91;;;13.42;57.13
69524;BME280;56723;42.694;23.286;2023-05-12T12:20:47;95331.13;;;13.44;57.73
69524;BME280;56723;42.694;23.286;2023-05-12T12:23:14;95329.16;;;13.23;59.02
69524;BME280;56723;42.694;23.286;2023-05-12T12:25:41;95327.63;;;13.06;59.08
69524;BME280;56723;42.694;23.286;2023-05-12T12:28:09;95336.63;;;13.26;58.86
69524;BME280;56723;42.694;23.286;2023-05-12T12:30:36;95338.19;;;13.35;58.33
69524;BME280;56723;42.694;23.286;2023-05-12T12:33:03;95335.59;;;13.35;57.61
69524;BME280;56723;42.694;23.286;2023-05-12T12:35:30;95338.00;;;13.14;56.94
69524;BME280;56723;42.694;23.286;2023-05-12T12:37:58;95339.09;;;13.20;57.13
69524;BME280;56723;42.694;23.286;2023-05-12T12:40:26;95332.81;;;13.06;57.31
69524;BME280;56723;42.694;23.286;2023-05-12T12:42:53;95333.47;;;13.16;57.24
69524;BME280;56723;42.694;23.286;2023-05-12T12:45:20;95336.53;;;13.11;56.99
69524;BME280;56723;42.694;23.286;2023-05-12T12:47:50;95337.03;;;13.15;56.34
69524;BME280;56723;42.694;23.286;2023-05-12T12:50:18;95340.13;;;13.10;57.13
69524;BME280;56723;42.694;23.286;2023-05-12T12:52:45;95330.72;;;13.01;58.00
69524;BME280;56723;42.694;23.286;2023-05-12T12:55:13;95328.09;;;13.09;58.40
69524;BME280;56723;42.694;23.286;2023-05-12T12:57:41;95336.53;;;13.11;59.03
69524;BME280;56723;42.694;23.286;2023-05-12T13:00:10;95323.06;;;13.16;56.41
69524;BME280;56723;42.694;23.286;2023-05-12T13:02:38;95321.34;;;13.23;56.46
69524;BME280;56723;42.694;23.286;2023-05-12T13:05:05;95311.94;;;13.22;56.13
69524;BME280;56723;42.694;23.286;2023-05-12T13:07:33;95308.34;;;13.23;54.30
69524;BME280;56723;42.694;23.286;2023-05-12T13:10:00;95311.16;;;13.13;53.98
69524;BME280;56723;42.694;23.286;2023-05-12T13:12:27;95311.03;;;13.07;54.63
69524;BME280;56723;42.694;23.286;2023-05-12T13:14:56;95299.66;;;13.08;55.75
69524;BME280;56723;42.694;23.286;2023-05-12T13:17:23;95303.22;;;13.07;54.97
69524;BME280;56723;42.694;23.286;2023-05-12T13:19:50;95302.72;;;13.11;55.66
69524;BME280;56723;42.694;23.286;2023-05-12T13:22:20;95291.19;;;13.06;53.93
69524;BME280;56723;42.694;23.286;2023-05-12T13:24:47;95284.16;;;13.14;54.84
69524;BME280;56723;42.694;23.286;2023-05-12T13:27:15;95288.31;;;13.01;55.12
69524;BME280;56723;42.694;23.286;2023-05-12T13:29:41;95298.00;;;13.15;53.67
69524;BME280;56723;42.694;23.286;2023-05-12T13:32:14;95296.31;;;13.22;53.51
69524;BME280;56723;42.694;23.286;2023-05-12T13:34:41;95297.25;;;13.29;53.05
69524;BME280;56723;42.694;23.286;2023-05-12T13:37:08;95286.84;;;13.29;53.60
69524;BME280;56723;42.694;23.286;2023-05-12T13:39:35;95293.84;;;13.29;52.81
69524;BME280;56723;42.694;23.286;2023-05-12T13:42:02;95281.69;;;13.21;53.34
69524;BME280;56723;42.694;23.286;2023-05-12T13:44:30;95281.69;;;13.21;52.96
69524;BME280;56723;42.694;23.286;2023-05-12T13:46:57;95280.06;;;13.20;53.07
69524;BME280;56723;42.694;23.286;2023-05-12T13:49:24;95293.38;;;13.25;52.65
69524;BME280;56723;42.694;23.286;2023-05-12T13:51:51;95286.84;;;13.29;51.70
69524;BME280;56723;42.694;23.286;2023-05-12T13:54:18;95285.34;;;13.35;51.02
69524;BME280;56723;42.694;23.286;2023-05-12T13:56:45;95290.06;;;13.31;50.32
69524;BME280;56723;42.694;23.286;2023-05-12T13:59:12;95284.78;;;13.39;50.77
69524;BME280;56723;42.694;23.286;2023-05-12T14:01:39;95294.00;;;13.50;50.33
69524;BME280;56723;42.694;23.286;2023-05-12T14:04:07;95293.63;;;13.53;50.26
69524;BME280;56723;42.694;23.286;2023-05-12T14:06:34;95298.13;;;13.59;50.17
69524;BME280;56723;42.694;23.286;2023-05-12T14:09:01;95297.88;;;13.69;49.94
69524;BME280;56723;42.694;23.286;2023-05-12T14:11:31;95295.53;;;13.74;48.16
69524;BME280;56723;42.694;23.286;2023-05-12T14:14:00;95289.16;;;13.76;48.97
69524;BME280;56723;42.694;23.286;2023-05-12T14:16:29;95292.16;;;13.88;49.78
69524;BME280;56723;42.694;23.286;2023-05-12T14:18:56;95292.25;;;13.95;48.95
69524;BME280;56723;42.694;23.286;2023-05-12T14:21:23;95287.03;;;13.95;48.72
69524;BME280;56723;42.694;23.286;2023-05-12T14:23:50;95298.72;;;13.99;49.23
69524;BME280;56723;42.694;23.286;2023-05-12T14:26:17;95304.38;;;14.02;48.02
69524;BME280;56723;42.694;23.286;2023-05-12T14:28:45;95301.03;;;13.94;48.17
69524;BME280;56723;42.694;23.286;2023-05-12T14:31:12;95284.59;;;13.93;48.45
69524;BME280;56723;42.694;23.286;2023-05-12T14:33:39;95294.31;;;13.84;48.23
69524;BME280;56723;42.694;23.286;2023-05-12T14:36:07;95291.25;;;13.81;48.20
69524;BME280;56723;42.694;23.286;2023-05-12T14:38:34;95294.84;;;13.80;48.80
69524;BME280;56723;42.694;23.286;2023-05-12T14:41:01;95294.72;;;13.73;48.96
69524;BME280;56723;42.694;23.286;2023-05-12T14:43:28;95296.75;;;13.48;50.53
69524;BME280;56723;42.694;23.286;2023-05-12T14:45:55;95290.34;;;13.36;51.14
69524;BME280;56723;42.694;23.286;2023-05-12T14:48:23;95282.19;;;13.39;51.21
69524;BME280;56723;42.694;23.286;2023-05-12T14:50:54;95289.13;;;13.47;51.07
69524;BME280;56723;42.694;23.286;2023-05-12T14:53:22;95291.91;;;13.45;51.41
69524;BME280;56723;42.694;23.286;2023-05-12T14:55:49;95292.06;;;13.44;50.57
69524;BME280;56723;42.694;23.286;2023-05-12T14:58:16;95287.31;;;13.33;51.56
69524;BME280;56723;42.694;23.286;2023-05-12T15:00:44;95275.75;;;13.35;51.33
69524;BME280;56723;42.694;23.286;2023-05-12T15:03:11;95278.41;;;13.27;51.39
69524;BME280;56723;42.694;23.286;2023-05-12T15:05:39;95272.03;;;13.30;52.03
69524;BME280;56723;42.694;23.286;2023-05-12T15:08:12;95277.88;;;13.32;51.79
69524;BME280;56723;42.694;23.286;2023-05-12T15:10:39;95275.75;;;13.35;51.36
69524;BME280;56723;42.694;23.286;2023-05-12T15:13:06;95280.03;;;13.43;51.34
69524;BME280;56723;42.694;23.286;2023-05-12T15:15:33;95269.47;;;13.44;51.36
69524;BME280;56723;42.694;23.286;2023-05-12T15:18:01;95264.81;;;13.55;51.31
69524;BME280;56723;42.694;23.286;2023-05-12T15:20:28;95265.38;;;13.65;51.41
69524;BME280;56723;42.694;23.286;2023-05-12T15:22:55;95262.59;;;13.66;50.43
69524;BME280;56723;42.694;23.286;2023-05-12T15:25:22;95255.66;;;13.73;50.51
69524;BME280;56723;42.694;23.286;2023-05-12T15:27:49;95259.50;;;13.48;50.76
69524;BME280;56723;42.694;23.286;2023-05-12T15:30:16;95247.84;;;13.59;51.04
69524;BME280;56723;42.694;23.286;2023-05-12T15:32:43;95251.09;;;13.61;49.49
69524;BME280;56723;42.694;23.286;2023-05-12T15:35:11;95259.88;;;13.60;49.38
69524;BME280;56723;42.694;23.286;2023-05-12T15:37:38;95261.41;;;13.54;48.94
69524;BME280;56723;42.694;23.286;2023-05-12T15:40:06;95253.16;;;13.50;48.15
69524;BME280;56723;42.694;23.286;2023-05-12T15:42:33;95253.34;;;13.64;48.51
69524;BME280;56723;42.694;23.286;2023-05-12T15:45:00;95251.66;;;13.85;47.71
69524;BME280;56723;42.694;23.286;2023-05-12T15:47:27;95252.38;;;14.09;46.52
69524;BME280;56723;42.694;23.286;2023-05-12T15:49:54;95254.31;;;14.36;45.51
69524;BME280;56723;42.694;23.286;2023-05-12T15:52:21;95244.69;;;14.51;44.78
69524;BME280;56723;42.694;23.286;2023-05-12T15:54:48;95237.22;;;14.48;45.06
69524;BME280;56723;42.694;23.286;2023-05-12T15:57:15;95252.94;;;14.55;44.73
69524;BME280;56723;42.694;23.286;2023-05-12T15:59:42;95247.72;;;14.55;44.50
69524;BME280;56723;42.694;23.286;2023-05-12T16:02:09;95255.09;;;14.37;45.78
69524;BME280;56723;42.694;23.286;2023-05-12T16:04:36;95257.75;;;14.22;45.64
69524;BME280;56723;42.694;23.286;2023-05-12T16:07:04;95266.72;;;14.19;45.99
69524;BME280;56723;42.694;23.286;2023-05-12T16:09:31;95258.47;;;14.16;46.53
69524;BME280;56723;42.694;23.286;2023-05-12T16:11:58;95268.25;;;14.14;47.33
69524;BME280;56723;42.694;23.286;2023-05-12T16:14:25;95259.19;;;14.25;46.94
69524;BME280;56723;42.694;23.286;2023-05-12T16:16:52;95254.50;;;14.20;46.41
69524;BME280;56723;42.694;23.286;2023-05-12T16:19:20;95258.13;;;14.04;47.28
69524;BME280;56723;42.694;23.286;2023-05-12T16:21:47;95257.56;;;13.94;48.04
69524;BME280;56723;42.694;23.286;2023-05-12T16:24:14;95257.75;;;13.93;48.41
69524;BME280;56723;42.694;23.286;2023-05-12T16:26:41;95269.41;;;13.97;48.08
69524;BME280;56723;42.694;23.286;2023-05-12T16:29:08;95267.44;;;13.84;48.86
69524;BME280;56723;42.694;23.286;2023-05-12T16:31:35;95277.94;;;13.76;49.29
69524;BME280;56723;42.694;23.286;2023-05-12T16:34:02;95265.81;;;13.68;49.53
69524;BME280;56723;42.694;23.286;2023-05-12T16:36:29;95279.09;;;13.73;49.63
69524;BME280;56723;42.694;23.286;2023-05-12T16:38:57;95278.38;;;13.65;49.86
69524;BME280;56723;42.694;23.286;2023-05-12T16:41:25;95289.78;;;13.64;50.50
69524;BME280;56723;42.694;23.286;2023-05-12T16:43:54;95279.81;;;13.52;50.84
69524;BME280;56723;42.694;23.286;2023-05-12T16:46:21;95295.69;;;13.58;50.41
69524;BME280;56723;42.694;23.286;2023-05-12T16:48:49;95289.41;;;13.52;50.68
69524;BME280;56723;42.694;23.286;2023-05-12T16:51:16;95290.59;;;13.27;51.63
69524;BME280;56723;42.694;23.286;2023-05-12T16:53:43;95293.25;;;13.18;52.39
69524;BME280;56723;42.694;23.286;2023-05-12T16:56:10;95284.09;;;13.00;53.07
